Time;durP1;ratioP1;P1;durP2;ratioP2;P2;SDS_P1;SDS_P2;PMS_P1;PMS_P2;Temp;Humidity;BMP_temperature;BMP_pressure;BME280_temperature;BME280_humidity;BME280_pressure;Samples;Min_cycle;Max_cycle;Signal;HPM_P1;HPM_P2
2020/12/01 00:00:23;;;;;;;35.47;23.33;;;;;;;5.00;100.00;99932.72;5097909;28;20196;-35
2020/12/01 00:03:10;;;;;;;36.10;22.70;;;;;;;5.01;100.00;99942.16;5097722;28;20224;-36
2020/12/01 00:05:57;;;;;;;35.83;21.80;;;;;;;4.97;100.00;99932.75;5097676;28;20278;-35
2020/12/01 00:08:43;;;;;;;36.03;21.70;;;;;;;4.86;100.00;99929.22;5097768;28;20196;-38
2020/12/01 00:11:29;;;;;;;39.00;21.70;;;;;;;4.93;100.00;99928.41;5097732;28;20203;-36
2020/12/01 00:14:15;;;;;;;37.17;23.90;;;;;;;4.86;100.00;99924.09;5097634;28;20342;-34
2020/12/01 00:17:02;;;;;;;33.23;21.80;;;;;;;4.79;100.00;99917.22;5097186;28;20271;-33
2020/12/01 00:19:48;;;;;;;36.77;22.63;;;;;;;4.86;100.00;99924.09;5097258;28;20289;-33
2020/12/01 00:22:34;;;;;;;37.83;22.73;;;;;;;4.71;100.00;99916.25;5097286;28;20196;-33
2020/12/01 00:25:21;;;;;;;34.10;22.63;;;;;;;4.75;100.00;99907.78;5097546;28;20371;-34
2020/12/01 00:28:07;;;;;;;34.53;22.20;;;;;;;4.81;100.00;99907.81;5097143;28;20297;-34
2020/12/01 00:30:52;;;;;;;35.80;21.33;;;;;;;4.82;100.00;99912.94;5097552;28;20454;-33
2020/12/01 00:33:39;;;;;;;32.23;21.03;;;;;;;4.84;100.00;99908.69;5097290;28;20242;-34
2020/12/01 00:36:26;;;;;;;36.40;20.10;;;;;;;4.82;100.00;99909.53;5097395;28;20337;-32
2020/12/01 00:39:12;;;;;;;32.83;19.90;;;;;;;4.79;100.00;99899.28;5097437;28;20196;-33
2020/12/01 00:41:58;;;;;;;33.10;21.90;;;;;;;4.95;100.00;99903.66;5097254;28;20478;-35
2020/12/01 00:44:44;;;;;;;32.03;19.80;;;;;;;4.94;100.00;99895.97;5096804;28;20229;-35
2020/12/01 00:47:30;;;;;;;30.00;19.63;;;;;;;4.74;100.00;99880.44;5097186;28;20286;-36
2020/12/01 00:50:21;;;;;;;28.70;19.90;;;;;;;4.85;100.00;99878.81;5097542;28;20256;-34
2020/12/01 00:53:08;;;;;;;29.90;19.63;;;;;;;4.84;100.00;99871.97;5096915;28;20629;-36
2020/12/01 00:55:54;;;;;;;26.27;18.53;;;;;;;4.96;100.00;99877.19;5097341;28;20705;-33
2020/12/01 00:58:42;;;;;;;31.27;19.53;;;;;;;5.02;100.00;99873.78;5097373;28;20255;-34
2020/12/01 01:01:30;;;;;;;26.40;17.10;;;;;;;4.87;100.00;99874.56;5096902;28;20200;-35
2020/12/01 01:04:16;;;;;;;24.70;17.20;;;;;;;4.87;100.00;99878.81;5097840;28;20205;-36
2020/12/01 01:07:03;;;;;;;25.40;18.00;;;;;;;5.03;100.00;99868.69;5101125;28;20197;-38
2020/12/01 01:09:49;;;;;;;23.63;16.70;;;;;;;4.80;100.00;99857.41;5101057;28;20195;-36
2020/12/01 01:12:35;;;;;;;22.83;17.10;;;;;;;4.91;100.00;99855.78;5101261;28;20208;-38
2020/12/01 01:15:24;;;;;;;24.90;16.67;;;;;;;4.94;100.00;99853.25;5100939;28;20243;-34
2020/12/01 01:18:10;;;;;;;20.20;15.97;;;;;;;4.95;100.00;99859.25;5100986;28;20483;-36
2020/12/01 01:20:56;;;;;;;22.57;15.67;;;;;;;4.91;100.00;99853.22;5100986;28;20305;-35
2020/12/01 01:23:43;;;;;;;19.47;14.93;;;;;;;4.92;100.00;99860.06;5101093;28;20314;-37
2020/12/01 01:26:30;;;;;;;20.70;15.43;;;;;;;5.00;100.00;99848.16;5100383;28;20247;-35
2020/12/01 01:29:16;;;;;;;19.40;15.80;;;;;;;4.97;100.00;99855.84;5101002;28;20203;-36
2020/12/01 01:32:02;;;;;;;20.23;15.70;;;;;;;4.95;100.00;99856.69;5100828;28;20203;-36
2020/12/01 01:34:48;;;;;;;20.27;15.57;;;;;;;5.06;100.00;99858.47;5100602;28;20233;-37
2020/12/01 01:37:33;;;;;;;22.37;16.03;;;;;;;4.98;100.00;99862.69;5101089;28;20267;-37
2020/12/01 01:40:25;;;;;;;17.97;14.77;;;;;;;5.09;100.00;99861.03;5100520;28;20212;-35
2020/12/01 01:43:11;;;;;;;21.20;14.70;;;;;;;5.05;100.00;99858.44;5100423;28;20204;-34
2020/12/01 01:45:57;;;;;;;21.03;15.37;;;;;;;5.00;100.00;99863.53;5099935;28;20358;-35
2020/12/01 01:48:43;;;;;;;19.10;14.57;;;;;;;4.91;100.00;99862.63;5100599;28;20503;-35
2020/12/01 01:51:29;;;;;;;18.43;14.37;;;;;;;4.93;100.00;99861.78;5100302;28;20209;-37
2020/12/01 01:54:18;;;;;;;22.03;15.67;;;;;;;4.97;100.00;99858.41;5100520;28;20196;-35
2020/12/01 01:57:07;;;;;;;23.23;15.83;;;;;;;5.02;100.00;99851.59;5100407;28;20199;-38
2020/12/01 01:59:53;;;;;;;23.50;16.67;;;;;;;5.05;100.00;99849.06;5100238;28;20291;-34
2020/12/01 02:02:39;;;;;;;21.20;14.87;;;;;;;5.08;100.00;99848.22;5100299;28;20540;-35
2020/12/01 02:05:25;;;;;;;22.23;15.03;;;;;;;5.20;100.00;99853.41;5100074;28;20236;-37
2020/12/01 02:08:11;;;;;;;19.27;14.27;;;;;;;4.87;100.00;99851.50;5100032;28;20212;-36
2020/12/01 02:10:57;;;;;;;20.43;17.53;;;;;;;4.93;100.00;99846.41;5099988;28;20638;-34
2020/12/01 02:13:53;;;;;;;21.93;14.57;;;;;;;5.01;100.00;99842.19;5100176;28;20487;-38
2020/12/01 02:16:43;;;;;;;20.03;15.73;;;;;;;4.92;100.00;99834.44;5098931;28;20206;-36
2020/12/01 02:19:30;;;;;;;21.37;15.63;;;;;;;4.96;100.00;99835.34;5099730;28;20323;-39
2020/12/01 02:22:19;;;;;;;18.37;14.17;;;;;;;4.99;100.00;99828.53;5099683;28;20254;-36
2020/12/01 02:25:05;;;;;;;20.73;15.27;;;;;;;5.00;100.00;99819.09;5099863;28;20244;-37
2020/12/01 02:27:55;;;;;;;21.40;15.07;;;;;;;5.15;100.00;99824.34;5099476;28;20263;-33
2020/12/01 02:30:44;;;;;;;18.83;15.03;;;;;;;4.96;100.00;99831.06;5099477;28;20260;-38
2020/12/01 02:33:29;;;;;;;21.17;14.90;;;;;;;5.15;100.00;99834.59;5098680;28;20495;-39
2020/12/01 02:36:15;;;;;;;19.97;14.93;;;;;;;5.15;100.00;99832.03;5099223;28;20212;-36
2020/12/01 02:39:02;;;;;;;19.17;14.97;;;;;;;4.95;100.00;99834.47;5099464;28;20348;-32
2020/12/01 02:41:48;;;;;;;21.73;15.77;;;;;;;4.99;100.00;99835.34;5099371;28;20616;-35
2020/12/01 02:44:35;;;;;;;21.20;14.93;;;;;;;5.01;100.00;99833.63;5098980;28;20314;-36
2020/12/01 02:47:20;;;;;;;21.63;15.50;;;;;;;5.14;100.00;99828.63;5098918;28;20603;-34
2020/12/01 02:50:07;;;;;;;21.40;15.37;;;;;;;5.14;100.00;99828.63;5099588;28;20216;-36
2020/12/01 02:52:53;;;;;;;23.23;15.23;;;;;;;4.95;100.00;99833.63;5099137;28;20289;-34
2020/12/01 02:55:38;;;;;;;23.37;17.23;;;;;;;5.06;100.00;99824.28;5099140;28;20491;-34
2020/12/01 02:58:24;;;;;;;24.70;17.10;;;;;;;5.26;100.00;99832.09;5099392;28;20280;-38
2020/12/01 03:01:11;;;;;;;26.23;17.20;;;;;;;5.30;100.00;99827.00;5098496;28;20218;-36
2020/12/01 03:03:57;;;;;;;25.73;16.23;;;;;;;5.34;100.00;99833.00;5099518;28;20202;-37
2020/12/01 03:06:42;;;;;;;26.07;18.00;;;;;;;5.08;100.00;99835.41;5099235;28;20322;-34
2020/12/01 03:09:28;;;;;;;28.33;17.43;;;;;;;5.31;100.00;99831.28;5098858;28;20586;-34
2020/12/01 03:12:14;;;;;;;26.60;17.83;;;;;;;5.12;100.00;99832.88;5098804;28;20487;-34
2020/12/01 03:15:01;;;;;;;28.27;18.13;;;;;;;5.34;100.00;99833.00;5098829;28;20645;-37
2020/12/01 03:17:49;;;;;;;31.93;19.30;;;;;;;5.38;100.00;99827.03;5098670;28;20280;-35
2020/12/01 03:20:35;;;;;;;29.73;18.73;;;;;;;5.16;100.00;99824.34;5098102;28;20267;-34
2020/12/01 03:23:20;;;;;;;33.47;20.27;;;;;;;5.20;100.00;99828.63;5098532;28;20251;-33
2020/12/01 03:26:07;;;;;;;33.13;19.30;;;;;;;5.25;100.00;99825.25;5098552;28;20229;-38
2020/12/01 03:28:53;;;;;;;37.43;22.83;;;;;;;4.98;100.00;99821.69;5097665;28;20258;-33
2020/12/01 03:31:38;;;;;;;37.27;21.17;;;;;;;5.12;100.00;99827.75;5098306;28;20218;-36
2020/12/01 03:34:26;;;;;;;37.57;22.20;;;;;;;5.31;100.00;99830.41;5098060;28;20482;-34
2020/12/01 03:37:12;;;;;;;39.37;23.07;;;;;;;5.20;100.00;99832.91;5098037;28;20642;-35
2020/12/01 03:39:58;;;;;;;39.43;21.63;;;;;;;5.51;100.00;99834.78;5098631;28;20204;-33
2020/12/01 03:42:44;;;;;;;38.10;21.90;;;;;;;5.47;100.00;99834.75;5098284;28;20622;-36
2020/12/01 03:45:30;;;;;;;40.60;21.83;;;;;;;5.54;100.00;99832.25;5098403;28;20266;-34
2020/12/01 03:48:16;;;;;;;45.13;23.80;;;;;;;5.46;100.00;99835.63;5098132;28;20207;-35
2020/12/01 03:51:03;;;;;;;50.17;24.37;;;;;;;5.54;100.00;99832.25;5098085;28;20273;-36
2020/12/01 03:53:49;;;;;;;42.33;22.80;;;;;;;5.48;100.00;99831.34;5098133;28;20206;-35
2020/12/01 03:56:35;;;;;;;42.77;22.50;;;;;;;5.50;100.00;99829.66;5097983;28;20260;-37
2020/12/01 03:59:22;;;;;;;53.37;25.37;;;;;;;5.62;100.00;99839.09;5097562;28;20202;-36
2020/12/01 04:02:08;;;;;;;45.13;24.53;;;;;;;5.49;100.00;99830.50;5097871;28;20207;-35
2020/12/01 04:04:54;;;;;;;49.77;26.37;;;;;;;5.50;100.00;99834.78;5097817;28;20492;-36
2020/12/01 04:07:41;;;;;;;47.50;25.50;;;;;;;5.50;100.00;99835.63;5097240;28;20237;-35
2020/12/01 04:10:27;;;;;;;52.10;25.93;;;;;;;5.49;100.00;99836.50;5097891;28;20484;-35
2020/12/01 04:13:13;;;;;;;46.90;25.00;;;;;;;5.50;100.00;99833.06;5097960;28;20315;-34
2020/12/01 04:15:59;;;;;;;48.93;26.27;;;;;;;5.66;100.00;99825.44;5097486;28;20610;-34
2020/12/01 04:18:44;;;;;;;50.97;26.03;;;;;;;5.61;100.00;99822.84;5098193;28;20202;-36
2020/12/01 04:21:30;;;;;;;56.13;26.40;;;;;;;5.68;100.00;99832.28;5097794;28;20233;-37
2020/12/01 04:24:18;;;;;;;58.80;28.60;;;;;;;5.57;100.00;99825.41;5097109;28;20234;-35
2020/12/01 04:27:03;;;;;;;65.57;29.30;;;;;;;5.45;100.00;99826.19;5097580;28;20226;-34
2020/12/01 04:29:49;;;;;;;60.53;27.20;;;;;;;5.63;100.00;99827.97;5097669;28;20217;-36
2020/12/01 04:32:36;;;;;;;62.37;28.93;;;;;;;5.65;100.00;99824.56;5096798;28;20197;-35
2020/12/01 04:35:22;;;;;;;63.63;29.93;;;;;;;5.82;100.00;99828.06;5097458;28;20636;-37
2020/12/01 04:38:09;;;;;;;63.00;30.17;;;;;;;5.86;100.00;99834.06;5097221;28;20198;-34
2020/12/01 04:40:55;;;;;;;61.67;28.43;;;;;;;5.75;100.00;99833.19;5096900;28;20480;-35
2020/12/01 04:43:47;;;;;;;59.43;30.17;;;;;;;5.69;100.00;99831.44;5097360;28;20241;-35
2020/12/01 04:46:36;;;;;;;63.97;29.87;;;;;;;5.73;100.00;99838.31;5097106;28;20235;-36
2020/12/01 04:49:26;;;;;;;60.57;29.67;;;;;;;5.80;100.00;99836.59;5097138;28;20201;-36
2020/12/01 04:52:28;;;;;;;65.00;30.63;;;;;;;5.81;100.00;99841.75;5096830;28;20265;-34
2020/12/01 04:55:41;;;;;;;64.50;30.80;;;;;;;5.66;100.00;99836.56;5097364;28;20256;-34
2020/12/01 04:58:50;;;;;;;71.30;36.60;;;;;;;5.62;100.00;99836.53;5097543;28;20209;-35
2020/12/01 05:02:24;;;;;;;65.97;31.23;;;;;;;5.67;100.00;99838.28;5096970;28;20296;-37
2020/12/01 05:05:31;;;;;;;60.43;31.43;;;;;;;5.65;100.00;99845.09;5087080;28;20253;-36
2020/12/01 05:08:32;;;;;;;64.17;31.03;;;;;;;5.71;100.00;99841.72;5562190;22;20523;-31
2020/12/01 05:11:23;;;;;;;63.70;30.23;;;;;;;5.86;100.00;99837.50;5098147;28;20241;-31
2020/12/01 05:14:20;;;;;;;71.47;30.87;;;;;;;5.87;100.00;99840.91;5091713;28;20197;-31
2020/12/01 05:17:54;;;;;;;69.40;31.13;;;;;;;5.91;100.00;99837.53;5097581;28;20202;-31
2020/12/01 05:20:45;;;;;;;61.07;30.70;;;;;;;5.84;100.00;99841.75;5097062;28;20605;-31
2020/12/01 05:23:37;;;;;;;66.37;31.03;;;;;;;5.73;100.00;99840.00;5098486;28;20207;-31
2020/12/01 05:26:29;;;;;;;59.97;29.30;;;;;;;5.60;100.00;99839.09;5096798;28;20227;-31
2020/12/01 05:29:25;;;;;;;66.77;32.53;;;;;;;5.78;100.00;99846.03;5100942;28;20210;-31
2020/12/01 05:32:11;;;;;;;61.33;31.27;;;;;;;5.86;100.00;99845.19;5100544;28;20203;-31
2020/12/01 05:35:08;;;;;;;69.03;30.47;;;;;;;6.08;100.00;99845.28;5097084;28;20446;-31
2020/12/01 05:38:00;;;;;;;69.17;33.00;;;;;;;5.94;100.00;99840.13;5097867;28;20196;-31
2020/12/01 05:40:49;;;;;;;70.57;32.80;;;;;;;5.89;100.00;99846.94;5097265;28;20504;-31
2020/12/01 05:43:38;;;;;;;74.53;34.07;;;;;;;5.84;100.00;99846.03;5099784;28;20613;-31
2020/12/01 05:46:33;;;;;;;76.37;34.20;;;;;;;5.84;100.00;99851.16;5097724;28;20513;-31
2020/12/01 05:49:30;;;;;;;68.67;32.43;;;;;;;6.05;100.00;99845.28;5097964;28;20199;-30
2020/12/01 05:52:18;;;;;;;74.50;32.27;;;;;;;5.98;100.00;99849.56;5098538;28;20591;-31
2020/12/01 05:55:14;;;;;;;70.17;33.63;;;;;;;5.89;100.00;99854.66;5100699;28;20212;-31
2020/12/01 05:58:04;;;;;;;78.33;35.57;;;;;;;5.79;100.00;99853.75;5100451;28;20196;-30
2020/12/01 06:00:59;;;;;;;76.43;32.27;;;;;;;5.75;100.00;99856.28;5101580;28;20241;-31
2020/12/01 06:04:08;;;;;;;67.20;31.40;;;;;;;5.96;100.00;99858.09;5102712;28;20205;-31
2020/12/01 06:07:01;;;;;;;80.13;35.33;;;;;;;5.93;100.00;99856.38;5099569;28;20578;-30
2020/12/01 06:10:19;;;;;;;86.73;36.63;;;;;;;5.95;100.00;99856.38;5099725;28;20279;-30
2020/12/01 06:13:28;;;;;;;80.77;33.43;;;;;;;5.97;100.00;99864.94;5109062;28;20226;-30
2020/12/01 06:16:31;;;;;;;81.73;36.83;;;;;;;5.98;100.00;99869.22;5113988;28;20187;-30
2020/12/01 06:19:31;;;;;;;84.47;35.40;;;;;;;5.96;100.00;99866.66;5100080;28;20198;-30
2020/12/01 06:22:51;;;;;;;82.73;35.47;;;;;;;6.01;100.00;99877.78;5099684;28;20260;-31
2020/12/01 06:25:57;;;;;;;99.67;39.30;;;;;;;6.09;100.00;99872.69;5100078;28;20281;-30
2020/12/01 06:29:01;;;;;;;91.60;38.27;;;;;;;6.16;100.00;99875.28;5099468;28;20291;-30
2020/12/01 06:32:11;;;;;;;104.00;38.37;;;;;;;5.99;100.00;99865.81;5100121;28;20287;-30
2020/12/01 06:35:41;;;;;;;96.67;37.93;;;;;;;6.06;100.00;99880.38;5100690;28;20196;-30
2020/12/01 06:38:50;;;;;;;90.80;35.10;;;;;;;6.04;100.00;99887.19;5100171;28;20250;-30
2020/12/01 06:41:41;;;;;;;97.72;44.67;;;;;;;6.16;100.00;99884.69;5098705;28;20562;-30
2020/12/01 06:44:28;;;;;;;101.53;40.57;;;;;;;6.02;100.00;99889.75;5100792;28;20607;-32
2020/12/01 06:47:22;;;;;;;104.57;40.63;;;;;;;6.19;100.00;99888.09;5093769;28;20541;-29
2020/12/01 06:50:22;;;;;;;108.10;39.37;;;;;;;6.31;100.00;99887.28;5099793;28;20675;-32
2020/12/01 06:53:27;;;;;;;102.43;40.00;;;;;;;6.18;100.00;99888.13;5099915;28;20361;-31
2020/12/01 06:56:18;;;;;;;105.07;35.83;;;;;;;5.89;100.00;99890.56;5098303;28;20191;-30
2020/12/01 06:59:09;;;;;;;91.90;37.40;;;;;;;5.92;100.00;99885.47;5099106;28;20203;-30
2020/12/01 07:02:06;;;;;;;112.73;40.57;;;;;;;5.94;100.00;99891.47;5102868;28;20324;-30
2020/12/01 07:05:13;;;;;;;96.47;43.15;;;;;;;5.90;100.00;99891.44;5100556;28;20471;-31
2020/12/01 07:08:12;;;;;;;91.63;39.60;;;;;;;5.71;100.00;99893.91;5077892;28;20377;-30
2020/12/01 07:11:05;;;;;;;94.30;37.70;;;;;;;6.00;100.00;99900.88;5079059;28;20251;-30
2020/12/01 07:13:57;;;;;;;90.47;37.70;;;;;;;6.35;100.00;99919.00;5078829;28;20626;-29
2020/12/01 07:16:47;;;;;;;106.30;40.20;;;;;;;5.96;100.00;99918.00;5078823;28;20203;-30
2020/12/01 07:19:41;;;;;;;102.10;37.80;;;;;;;6.33;100.00;99910.41;5078930;28;20227;-30
2020/12/01 07:22:37;;;;;;;112.97;41.93;;;;;;;5.94;100.00;99917.13;5085243;28;20478;-30
2020/12/01 07:25:40;;;;;;;116.13;40.33;;;;;;;6.02;100.00;99915.44;5079096;28;20280;-30
2020/12/01 07:28:35;;;;;;;97.07;37.97;;;;;;;6.08;100.00;99917.19;5079199;28;20229;-30
2020/12/01 07:31:23;;;;;;;104.23;38.57;;;;;;;6.43;100.00;99925.84;5078797;28;20200;-30
2020/12/01 07:34:23;;;;;;;121.00;40.43;;;;;;;6.27;100.00;99928.38;5077971;28;20198;-30
2020/12/01 07:37:36;;;;;;;107.90;39.03;;;;;;;6.22;100.00;99930.91;5078259;28;20301;-30
2020/12/01 07:40:26;;;;;;;94.40;36.77;;;;;;;6.17;100.00;99930.94;5078048;28;20199;-31
2020/12/01 07:43:14;;;;;;;104.93;37.03;;;;;;;6.23;100.00;99935.19;5078940;28;20208;-30
2020/12/01 07:46:03;;;;;;;103.00;37.60;;;;;;;6.13;100.00;99938.59;5078040;28;20211;-30
2020/12/01 07:48:59;;;;;;;120.17;43.33;;;;;;;6.02;100.00;99942.81;5078301;28;20255;-30
2020/12/01 07:51:47;;;;;;;116.03;41.40;;;;;;;6.06;100.00;99945.41;5077917;28;20227;-30
2020/12/01 07:54:37;;;;;;;99.77;38.17;;;;;;;5.88;100.00;99942.72;5087636;28;20241;-30
2020/12/01 07:57:25;;;;;;;108.30;40.20;;;;;;;6.11;100.00;99946.31;5086630;28;20503;-31
2020/12/01 08:00:18;;;;;;;115.17;40.27;;;;;;;6.01;100.00;99952.22;5078232;28;20331;-30
2020/12/01 08:03:14;;;;;;;111.83;38.73;;;;;;;6.44;100.00;99950.69;5077767;28;20354;-30
2020/12/01 08:06:03;;;;;;;109.87;40.13;;;;;;;6.28;100.00;99955.78;5077943;28;20332;-30
2020/12/01 08:08:49;;;;;;;122.00;41.47;;;;;;;6.30;100.00;99954.06;5077493;28;20239;-30
2020/12/01 08:11:35;;;;;;;126.07;44.77;;;;;;;6.04;100.00;99954.81;5077018;28;20346;-30
2020/12/01 08:14:21;;;;;;;119.90;40.47;;;;;;;6.20;100.00;99960.88;5076861;28;20200;-30
2020/12/01 08:17:15;;;;;;;133.27;44.17;;;;;;;6.24;100.00;99954.91;5080687;28;20199;-30
2020/12/01 08:20:04;;;;;;;126.60;43.03;;;;;;;6.27;100.00;99964.31;5079670;28;20458;-31
2020/12/01 08:22:57;;;;;;;108.70;40.10;;;;;;;6.33;100.00;99970.34;5080638;28;20499;-30
2020/12/01 08:26:04;;;;;;;113.60;38.97;;;;;;;6.01;100.00;99964.22;5092013;28;20211;-30
2020/12/01 08:29:02;;;;;;;126.23;44.47;;;;;;;6.01;100.00;99967.63;5097811;28;20219;-30
2020/12/01 08:32:00;;;;;;;151.77;48.37;;;;;;;6.13;100.00;99971.97;5097664;28;20195;-30
2020/12/01 08:34:53;;;;;;;138.67;46.33;;;;;;;6.12;100.00;99971.13;5097773;28;20196;-30
2020/12/01 08:37:47;;;;;;;115.97;41.83;;;;;;;6.44;100.00;99972.94;5096813;28;20207;-30
2020/12/01 08:40:38;;;;;;;133.97;43.87;;;;;;;6.50;100.00;99978.97;5097211;28;20199;-30
2020/12/01 08:43:40;;;;;;;138.53;44.47;;;;;;;6.51;100.00;99970.41;5097180;28;20211;-29
2020/12/01 08:46:28;;;;;;;115.23;38.87;;;;;;;6.24;100.00;99975.44;5099166;28;20225;-30
2020/12/01 08:52:37;;;;;;;136.07;45.10;;;;;;;6.25;100.00;99971.16;5099216;28;20291;-30
2020/12/01 08:55:27;;;;;;;130.70;41.83;;;;;;;6.34;100.00;99984.91;5097047;28;20207;-30
2020/12/01 08:58:22;;;;;;;137.20;43.77;;;;;;;6.36;100.00;99983.22;5097320;28;20199;-30
2020/12/01 09:01:10;;;;;;;137.83;43.17;;;;;;;6.77;100.00;99990.19;5098033;28;20207;-30
2020/12/01 09:03:59;;;;;;;139.80;43.20;;;;;;;6.89;100.00;99997.91;5097230;28;20229;-30
2020/12/01 09:06:45;;;;;;;145.00;45.57;;;;;;;6.39;100.00;99990.06;5102288;28;20254;-30
2020/12/01 09:09:47;;;;;;;145.37;43.80;;;;;;;6.59;100.00;100000.41;5096590;28;20291;-30
2020/12/01 09:12:37;;;;;;;140.13;46.30;;;;;;;6.26;100.00;99999.44;5096885;28;20196;-30
2020/12/01 09:15:34;;;;;;;123.53;39.80;;;;;;;6.50;100.00;99996.97;5098769;28;20309;-30
2020/12/01 09:18:42;;;;;;;129.97;40.63;;;;;;;6.44;100.00;100006.34;5096938;28;20261;-30
2020/12/01 09:24:32;;;;;;;115.40;39.67;;;;;;;6.45;100.00;100014.06;5097405;28;20215;-31
2020/12/01 09:27:19;;;;;;;121.50;40.97;;;;;;;6.69;100.00;100012.44;5102872;28;20226;-30
2020/12/01 09:30:06;;;;;;;126.57;40.73;;;;;;;6.78;100.00;100010.75;5104832;28;20292;-30
2020/12/01 09:32:51;;;;;;;115.43;40.57;;;;;;;6.62;100.00;100013.25;5101066;28;20341;-30
2020/12/01 09:35:40;;;;;;;98.53;37.67;;;;;;;6.79;100.00;100017.63;5100340;28;20200;-29
2020/12/01 09:38:25;;;;;;;111.70;39.30;;;;;;;6.82;100.00;100024.44;5100851;28;20507;-30
2020/12/01 09:41:16;;;;;;;101.30;39.10;;;;;;;6.89;100.00;100016.75;5101912;28;20210;-31
2020/12/01 09:44:07;;;;;;;99.27;36.60;;;;;;;6.75;100.00;100015.03;5101565;28;20281;-30
2020/12/01 09:46:59;;;;;;;110.33;37.10;;;;;;;6.91;100.00;100017.63;5100370;28;20226;-30
2020/12/01 09:49:50;;;;;;;86.43;34.90;;;;;;;7.09;100.00;100014.22;5100064;28;20212;-31
2020/12/01 10:08:23;;;;;;;105.13;38.90;;;;;;;6.98;100.00;100030.50;5094194;28;20393;-30
2020/12/01 10:14:29;;;;;;;92.67;36.83;;;;;;;7.13;100.00;100026.25;5091298;28;20219;-31
2020/12/01 10:35:38;;;;;;;106.90;37.03;;;;;;;7.50;100.00;100028.81;5103256;28;20256;-30
2020/12/01 10:38:24;;;;;;;94.37;34.10;;;;;;;7.37;100.00;100034.84;5092371;28;20618;-31
2020/12/01 10:41:10;;;;;;;116.53;38.93;;;;;;;7.48;100.00;100028.81;5099504;28;20608;-31
2020/12/01 10:43:58;;;;;;;78.40;32.73;;;;;;;7.34;100.00;100033.13;5101283;28;20195;-31
2020/12/01 10:46:52;;;;;;;68.07;31.13;;;;;;;7.35;100.00;100027.13;5095304;28;20298;-31
2020/12/01 10:49:40;;;;;;;71.33;30.97;;;;;;;7.54;100.00;100035.69;5099815;28;20190;-31
2020/12/01 10:52:28;;;;;;;67.00;29.40;;;;;;;7.58;100.00;100033.13;5081092;28;20253;-30
2020/12/01 10:55:16;;;;;;;63.77;28.47;;;;;;;7.61;100.00;100033.09;5080465;28;20257;-30
2020/12/01 10:58:02;;;;;;;67.10;28.33;;;;;;;7.82;100.00;100037.38;5078639;28;20196;-31
2020/12/01 11:00:51;;;;;;;65.20;26.80;;;;;;;7.66;100.00;100043.41;5082801;28;20494;-31
2020/12/01 11:03:37;;;;;;;56.50;25.30;;;;;;;7.84;100.00;100040.81;5080909;28;20307;-31
2020/12/01 11:06:24;;;;;;;54.43;25.43;;;;;;;7.93;100.00;100038.22;5078801;28;20486;-32
2020/12/01 11:09:11;;;;;;;50.70;25.80;;;;;;;7.77;100.00;100039.13;5091873;28;20246;-32
2020/12/01 11:11:58;;;;;;;54.47;24.87;;;;;;;7.87;100.00;100033.09;5102169;28;20198;-31
2020/12/01 11:14:44;;;;;;;59.77;27.43;;;;;;;8.04;100.00;100042.50;5099126;28;20633;-31
2020/12/01 11:17:30;;;;;;;51.40;26.97;;;;;;;7.73;100.00;100041.69;5101630;28;20322;-31
2020/12/01 11:20:17;;;;;;;50.57;22.50;;;;;;;7.85;100.00;100036.50;5077662;28;20199;-31
2020/12/01 11:23:09;;;;;;;45.10;21.70;;;;;;;8.01;100.00;100037.34;5078581;28;20467;-31
2020/12/01 11:25:55;;;;;;;61.57;26.03;;;;;;;7.92;100.00;100040.81;5079714;28;20207;-31
2020/12/01 11:28:42;;;;;;;51.93;23.87;;;;;;;7.98;100.00;100039.94;5080692;28;20231;-31
2020/12/01 11:31:28;;;;;;;47.53;22.20;;;;;;;8.21;100.00;100041.59;5078148;28;20216;-31
2020/12/01 11:34:14;;;;;;;43.73;22.37;;;;;;;8.46;100.00;100047.56;5078846;28;20349;-31
2020/12/01 11:37:00;;;;;;;44.07;21.53;;;;;;;8.29;100.00;100047.59;5078159;28;20287;-31
2020/12/01 11:39:50;;;;;;;52.43;24.50;;;;;;;8.34;100.00;100052.75;5086272;28;20203;-31
2020/12/01 11:42:43;;;;;;;48.30;22.67;;;;;;;8.79;100.00;100051.69;5098662;28;20622;-31
2020/12/01 11:45:29;;;;;;;58.30;25.03;;;;;;;8.72;100.00;100054.34;5098734;28;20196;-31
2020/12/01 11:48:16;;;;;;;50.97;23.50;;;;;;;8.55;100.00;100057.00;5097161;28;20665;-31
2020/12/01 11:51:01;;;;;;;51.47;24.67;;;;;;;8.42;100.00;100056.16;5087054;28;20350;-31
2020/12/01 11:53:47;;;;;;;50.27;24.17;;;;;;;8.56;100.00;100059.56;5078043;28;20221;-31
2020/12/01 11:56:36;;;;;;;46.10;22.93;;;;;;;8.78;100.00;100056.91;5078308;28;20312;-31
2020/12/01 11:59:26;;;;;;;46.07;22.37;;;;;;;8.64;100.00;100067.25;5082065;28;20290;-32
2020/12/01 12:02:15;;;;;;;48.17;22.10;;;;;;;8.75;100.00;100064.63;5077898;28;20196;-31
2020/12/01 12:05:11;;;;;;;41.53;21.83;;;;;;;8.95;100.00;100067.97;5077840;28;20342;-31
2020/12/01 12:07:56;;;;;;;52.70;23.93;;;;;;;8.83;100.00;100060.28;5079933;28;20305;-31
2020/12/01 12:10:43;;;;;;;45.20;23.03;;;;;;;8.96;100.00;100064.53;5096812;28;20208;-31
2020/12/01 12:13:31;;;;;;;52.37;25.63;;;;;;;8.81;100.00;100067.16;5097934;28;20262;-31
2020/12/01 12:16:19;;;;;;;47.07;23.00;;;;;;;8.97;100.00;100072.28;5098627;28;20274;-31
2020/12/01 12:19:04;;;;;;;51.43;25.77;;;;;;;8.96;100.00;100067.97;5101329;28;20195;-31
2020/12/01 12:21:50;;;;;;;50.63;24.37;;;;;;;8.86;100.00;100073.16;5078233;28;20201;-31
2020/12/01 12:24:36;;;;;;;57.60;26.00;;;;;;;8.54;100.00;100075.91;5077117;28;20255;-31
2020/12/01 12:27:22;;;;;;;45.47;23.80;;;;;;;8.99;100.00;100082.59;5077566;28;20281;-31
2020/12/01 12:30:09;;;;;;;46.97;22.37;;;;;;;9.45;100.00;100084.84;5076987;28;20388;-31
2020/12/01 12:32:59;;;;;;;52.80;26.70;;;;;;;8.77;100.00;100091.28;5077226;28;20485;-32
2020/12/01 12:35:59;;;;;;;46.70;24.17;;;;;;;8.96;100.00;100087.75;5076717;28;20284;-31
2020/12/01 12:38:51;;;;;;;37.43;19.80;;;;;;;8.69;100.00;100099.03;5077907;28;20209;-31
2020/12/01 12:41:37;;;;;;;37.70;20.37;;;;;;;8.90;100.00;100100.66;5076795;28;20300;-30
2020/12/01 12:44:22;;;;;;;34.03;18.23;;;;;;;8.88;100.00;100104.97;5075779;28;20596;-31
2020/12/01 12:47:09;;;;;;;29.73;16.77;;;;;;;8.99;100.00;100098.06;5075967;28;20614;-31
2020/12/01 12:49:55;;;;;;;30.67;18.07;;;;;;;8.90;100.00;100093.78;5077897;28;20220;-31
2020/12/01 12:52:45;;;;;;;33.00;17.73;;;;;;;8.99;100.00;100096.31;5077105;28;20263;-32
2020/12/01 12:55:40;;;;;;;26.93;17.87;;;;;;;8.62;100.00;100087.88;5094489;28;20219;-31
2020/12/01 12:58:30;;;;;;;29.67;16.73;;;;;;;8.61;100.00;100099.06;5097062;28;20205;-31
2020/12/01 13:01:16;;;;;;;31.03;17.37;;;;;;;8.94;100.00;100095.50;5099604;28;20202;-31
2020/12/01 13:04:03;;;;;;;22.90;15.00;;;;;;;8.71;100.00;100102.47;5101350;28;20695;-31
2020/12/01 13:06:49;;;;;;;29.77;17.70;;;;;;;9.18;100.00;100101.41;5101078;28;20201;-30
2020/12/01 13:09:38;;;;;;;23.27;16.83;;;;;;;8.66;100.00;100103.34;5100785;28;20209;-30
2020/12/01 13:12:26;;;;;;;28.77;17.13;;;;;;;8.59;100.00;100108.50;5101533;28;20217;-30
2020/12/01 13:15:18;;;;;;;21.17;14.00;;;;;;;8.35;100.00;100118.91;5100012;28;20593;-30
2020/12/01 13:18:04;;;;;;;25.63;15.70;;;;;;;8.63;100.00;100120.53;5099632;28;20254;-30
2020/12/01 13:20:50;;;;;;;26.13;14.93;;;;;;;8.37;100.00;100126.66;5096707;28;20199;-30
2020/12/01 13:23:36;;;;;;;22.77;14.43;;;;;;;8.33;100.00;100128.38;5100581;28;20241;-30
2020/12/01 13:26:22;;;;;;;21.60;15.87;;;;;;;8.34;100.00;100130.09;5100205;28;20304;-31
2020/12/01 13:29:08;;;;;;;21.07;14.47;;;;;;;8.06;100.00;100134.38;5106668;28;20205;-30
2020/12/01 13:31:54;;;;;;;25.87;15.93;;;;;;;8.00;100.00;100131.78;5101221;28;20205;-30
2020/12/01 13:34:40;;;;;;;24.90;16.70;;;;;;;8.04;100.00;100135.22;5102015;28;20204;-30
2020/12/01 13:37:29;;;;;;;28.67;17.40;;;;;;;8.29;100.00;100145.50;5101077;28;20195;-30
2020/12/01 13:40:17;;;;;;;24.23;17.10;;;;;;;8.14;100.00;100145.53;5101093;28;20273;-30
2020/12/01 13:43:05;;;;;;;25.23;16.20;;;;;;;7.98;100.00;100154.13;5100998;28;20275;-30